Time;durP1;ratioP1;P1;durP2;ratioP2;P2;SDS_P1;SDS_P2;PMS_P1;PMS_P2;Temp;Humidity;BMP_temperature;BMP_pressure;BME280_temperature;BME280_humidity;BME280_pressure;Samples;Min_cycle;Max_cycle;Signal;HPM_P1;HPM_P2
2021/09/09 00:00:48;;;;;;;17.52;8.18;;;;;;;12.94;66.63;100331.66;5096093;28;20024;-63
2021/09/09 00:03:13;;;;;;;14.98;8.50;;;;;;;12.93;66.97;100340.72;5095713;28;20035;-63
2021/09/09 00:05:38;;;;;;;11.15;8.80;;;;;;;12.89;66.87;100334.06;5095802;28;20024;-63
2021/09/09 00:08:04;;;;;;;13.63;8.20;;;;;;;12.86;66.84;100337.94;5095546;28;20021;-63
2021/09/09 00:10:30;;;;;;;14.48;9.15;;;;;;;12.83;66.81;100335.59;5095645;28;20103;-64
2021/09/09 00:12:55;;;;;;;11.85;8.68;;;;;;;12.79;67.17;100336.97;5094948;28;20070;-63
2021/09/09 00:15:20;;;;;;;10.05;8.32;;;;;;;12.75;67.22;100333.00;5095786;28;20024;-63
2021/09/09 00:17:46;;;;;;;13.02;8.63;;;;;;;12.72;67.52;100330.69;5095360;28;20178;-63
2021/09/09 00:20:12;;;;;;;12.70;8.18;;;;;;;12.68;67.50;100332.91;5095456;28;20036;-63
2021/09/09 00:22:38;;;;;;;14.40;8.80;;;;;;;12.69;67.56;100337.22;5095567;28;20035;-63
2021/09/09 00:25:04;;;;;;;12.73;8.38;;;;;;;12.67;67.66;100335.75;5111055;28;20028;-64
2021/09/09 00:27:30;;;;;;;13.02;8.52;;;;;;;12.65;67.95;100332.44;5111196;28;20500;-63
2021/09/09 00:29:55;;;;;;;11.65;8.25;;;;;;;12.62;67.67;100327.47;5094849;28;20037;-63
2021/09/09 00:32:20;;;;;;;12.07;8.48;;;;;;;12.56;67.77;100333.50;5100368;28;20119;-64
2021/09/09 00:34:46;;;;;;;14.73;9.90;;;;;;;12.52;67.74;100333.88;5100040;27;20485;-64
2021/09/09 00:37:11;;;;;;;14.32;9.43;;;;;;;12.48;67.54;100326.38;5094655;28;22580;-64
2021/09/09 00:39:36;;;;;;;12.07;8.70;;;;;;;12.43;67.79;100334.94;5095147;28;20071;-63
2021/09/09 00:42:02;;;;;;;12.20;8.68;;;;;;;12.39;68.62;100328.31;5094965;28;20033;-63
2021/09/09 00:44:28;;;;;;;15.60;8.95;;;;;;;12.36;67.80;100326.00;5094576;28;20447;-64
2021/09/09 00:47:04;;;;;;;15.68;9.55;;;;;;;12.32;67.78;100322.84;5094715;28;20033;-63
2021/09/09 00:49:32;;;;;;;17.50;10.23;;;;;;;12.26;68.26;100323.56;5092329;28;20028;-64
2021/09/09 00:51:57;;;;;;;14.63;8.95;;;;;;;12.22;68.58;100316.91;5094567;28;20819;-64
2021/09/09 00:54:23;;;;;;;16.77;9.88;;;;;;;12.19;69.01;100334.13;5065733;27;20089;-64
2021/09/09 00:56:49;;;;;;;13.63;9.30;;;;;;;12.14;68.58;100328.47;5104455;27;20052;-63
2021/09/09 00:59:15;;;;;;;12.73;10.18;;;;;;;12.08;68.79;100334.50;5095005;28;20771;-64
2021/09/09 01:01:41;;;;;;;13.70;9.43;;;;;;;12.04;69.37;100319.03;5094885;28;20029;-63
2021/09/09 01:04:07;;;;;;;15.30;9.80;;;;;;;12.00;69.29;100322.06;5094865;28;20408;-65
2021/09/09 01:06:32;;;;;;;11.32;9.05;;;;;;;11.96;69.54;100327.91;5110374;28;20155;-63
2021/09/09 01:08:58;;;;;;;13.88;10.35;;;;;;;11.93;69.78;100317.56;5095248;28;20021;-64
2021/09/09 01:11:24;;;;;;;15.13;9.75;;;;;;;11.89;69.92;100329.59;5094691;28;20115;-63
2021/09/09 01:13:50;;;;;;;15.20;9.90;;;;;;;11.88;69.43;100330.59;5094713;28;20036;-64
2021/09/09 01:16:15;;;;;;;13.20;9.20;;;;;;;11.84;69.66;100341.63;5094871;28;20029;-65
2021/09/09 01:18:41;;;;;;;15.35;9.70;;;;;;;11.80;69.42;100326.97;5093086;28;20031;-63
2021/09/09 01:21:06;;;;;;;13.23;9.32;;;;;;;11.77;69.91;100340.66;5098035;28;20024;-63
2021/09/09 01:23:31;;;;;;;14.52;9.98;;;;;;;11.74;69.65;100329.50;5098319;28;20044;-62
2021/09/09 01:25:57;;;;;;;13.85;10.35;;;;;;;11.71;70.27;100325.34;5098310;28;20032;-63
2021/09/09 01:28:23;;;;;;;12.65;9.70;;;;;;;11.70;70.15;100331.72;5098010;28;20029;-62
2021/09/09 01:30:48;;;;;;;13.20;9.57;;;;;;;11.69;70.14;100330.03;5098357;28;20122;-62
2021/09/09 01:33:14;;;;;;;15.88;10.48;;;;;;;11.64;70.47;100329.72;5097849;28;20174;-62
2021/09/09 01:35:39;;;;;;;15.73;10.40;;;;;;;11.61;70.52;100324.75;5098124;28;20025;-62
2021/09/09 01:38:18;;;;;;;17.83;10.20;;;;;;;11.60;70.70;100323.06;5097779;28;20033;-63
2021/09/09 01:40:43;;;;;;;13.75;9.90;;;;;;;11.60;70.29;100320.41;5098174;28;20412;-62
2021/09/09 01:43:08;;;;;;;18.98;10.48;;;;;;;11.57;70.85;100312.75;5097949;28;20036;-62
2021/09/09 01:45:34;;;;;;;15.95;10.25;;;;;;;11.55;70.64;100314.75;5097872;28;20029;-62
2021/09/09 01:48:00;;;;;;;15.95;10.45;;;;;;;11.51;70.62;100315.09;5098072;28;20139;-63
2021/09/09 01:50:26;;;;;;;16.85;10.23;;;;;;;11.49;70.76;100325.09;5097895;28;20036;-62
2021/09/09 01:52:51;;;;;;;14.07;9.07;;;;;;;11.46;70.53;100325.44;5096237;28;20039;-63
2021/09/09 01:55:17;;;;;;;14.80;10.88;;;;;;;11.44;70.69;100305.28;5097731;28;20033;-63
2021/09/09 01:57:42;;;;;;;15.60;10.00;;;;;;;11.42;71.25;100324.13;5097877;28;20055;-63
2021/09/09 02:00:08;;;;;;;14.57;10.00;;;;;;;11.39;71.28;100315.66;5097404;28;20024;-63
2021/09/09 02:02:33;;;;;;;14.70;9.93;;;;;;;11.37;71.00;100323.81;5097416;28;20030;-63
2021/09/09 02:04:59;;;;;;;11.40;9.07;;;;;;;11.34;71.69;100309.00;5097469;28;20473;-63
2021/09/09 02:07:24;;;;;;;13.95;10.90;;;;;;;11.33;71.53;100317.16;5097900;28;20239;-63
2021/09/09 02:09:49;;;;;;;14.55;10.63;;;;;;;11.27;71.13;100312.53;5097634;28;20096;-63
2021/09/09 02:12:15;;;;;;;20.23;10.85;;;;;;;11.21;71.28;100318.53;5097090;28;20041;-63
2021/09/09 02:14:40;;;;;;;13.63;9.43;;;;;;;11.18;71.75;100309.03;5097272;28;20025;-62
2021/09/09 02:17:07;;;;;;;14.57;10.30;;;;;;;11.17;71.94;100308.22;5097550;28;20029;-63
2021/09/09 02:19:33;;;;;;;16.95;10.50;;;;;;;11.17;72.24;100323.41;5097375;28;20028;-63
2021/09/09 02:21:58;;;;;;;12.90;10.45;;;;;;;11.13;72.39;100312.22;5097126;28;20033;-62
2021/09/09 02:24:24;;;;;;;16.63;11.20;;;;;;;11.11;71.88;100314.25;5097107;28;20025;-63
2021/09/09 02:26:49;;;;;;;19.00;11.23;;;;;;;11.05;71.74;100312.25;5097289;28;20118;-62
2021/09/09 02:29:15;;;;;;;15.13;9.95;;;;;;;11.03;72.33;100318.75;5096895;28;22671;-63
2021/09/09 02:31:40;;;;;;;15.45;10.20;;;;;;;11.01;72.16;100317.09;5097016;28;20408;-62
2021/09/09 02:34:05;;;;;;;17.73;10.32;;;;;;;10.99;72.26;100324.44;5096939;28;20497;-63
2021/09/09 02:36:32;;;;;;;17.20;11.63;;;;;;;10.97;72.61;100307.75;5097083;28;20080;-66
2021/09/09 02:38:58;;;;;;;19.02;10.52;;;;;;;10.99;72.21;100310.28;5096879;28;20028;-63
2021/09/09 02:41:23;;;;;;;19.92;10.20;;;;;;;10.98;72.61;100308.63;5097087;28;20035;-63
2021/09/09 02:43:49;;;;;;;17.98;11.02;;;;;;;10.94;72.13;100315.28;5112258;28;20135;-63
2021/09/09 02:46:14;;;;;;;16.95;10.43;;;;;;;10.89;72.17;100307.78;5096624;28;20028;-63
2021/09/09 02:48:39;;;;;;;22.98;10.68;;;;;;;10.87;73.05;100311.59;5096579;28;20142;-63
2021/09/09 02:51:05;;;;;;;17.33;10.05;;;;;;;10.86;72.70;100317.97;5096796;28;20576;-62
2021/09/09 02:53:30;;;;;;;15.50;9.88;;;;;;;10.82;72.74;100315.63;5096632;28;20044;-62
2021/09/09 02:55:55;;;;;;;18.95;10.13;;;;;;;10.77;73.10;100314.47;5096764;28;20389;-62
2021/09/09 02:58:21;;;;;;;22.65;10.35;;;;;;;10.72;73.31;100311.50;5096567;28;20032;-62
2021/09/09 03:00:46;;;;;;;17.98;11.32;;;;;;;10.68;73.02;100308.31;5096788;28;20039;-64
2021/09/09 03:03:11;;;;;;;22.02;10.77;;;;;;;10.66;72.94;100315.63;5096314;28;20052;-63
2021/09/09 03:05:37;;;;;;;19.60;10.15;;;;;;;10.61;73.25;100305.50;5096146;28;20452;-62
2021/09/09 03:08:02;;;;;;;16.20;11.02;;;;;;;10.60;73.47;100308.31;5096305;28;20021;-63
2021/09/09 03:10:28;;;;;;;18.67;10.40;;;;;;;10.59;73.43;100315.50;5096123;28;20062;-63
2021/09/09 03:12:53;;;;;;;14.90;10.70;;;;;;;10.57;73.22;100311.34;5095790;28;20063;-63
2021/09/09 03:15:19;;;;;;;12.82;9.45;;;;;;;10.55;73.40;100318.66;5096412;28;20079;-63
2021/09/09 03:17:44;;;;;;;13.00;10.00;;;;;;;10.53;73.92;100308.16;5096587;28;20376;-64
2021/09/09 03:20:10;;;;;;;16.17;10.57;;;;;;;10.51;73.65;100312.81;5095989;28;20029;-64
2021/09/09 03:22:36;;;;;;;16.05;10.93;;;;;;;10.49;73.77;100314.81;5095786;28;20035;-62
2021/09/09 03:25:01;;;;;;;14.45;10.65;;;;;;;10.46;73.99;100302.66;5095913;28;20083;-63
2021/09/09 03:27:27;;;;;;;16.55;10.48;;;;;;;10.44;73.94;100302.00;5096429;28;20099;-62
2021/09/09 03:29:52;;;;;;;15.50;9.73;;;;;;;10.43;74.32;100304.81;5096270;28;20101;-63
2021/09/09 03:32:17;;;;;;;16.58;10.65;;;;;;;10.42;74.30;100295.19;5095334;28;20473;-63
2021/09/09 03:34:43;;;;;;;18.33;10.80;;;;;;;10.40;74.27;100290.03;5096310;28;20040;-63
2021/09/09 03:37:08;;;;;;;16.40;10.73;;;;;;;10.38;74.44;100292.00;5095828;28;20058;-65
2021/09/09 03:39:33;;;;;;;16.73;10.52;;;;;;;10.35;74.17;100295.03;5095681;28;20086;-63
2021/09/09 03:41:59;;;;;;;15.00;11.32;;;;;;;10.33;74.45;100294.31;5095235;28;20111;-63
2021/09/09 03:44:24;;;;;;;16.50;10.45;;;;;;;10.28;74.55;100286.81;5096083;28;20467;-63
2021/09/09 03:46:50;;;;;;;22.00;11.98;;;;;;;10.26;74.59;100288.00;5095646;28;20470;-64
2021/09/09 03:49:15;;;;;;;25.45;12.95;;;;;;;10.23;74.79;100293.66;5095979;28;20571;-64
2021/09/09 03:51:40;;;;;;;17.23;10.82;;;;;;;10.19;74.55;100287.81;5095416;28;20420;-62
2021/09/09 03:54:05;;;;;;;17.15;10.65;;;;;;;10.16;74.89;100286.31;5095258;28;20548;-62
2021/09/09 03:56:31;;;;;;;17.20;11.52;;;;;;;10.14;74.99;100285.66;5110860;28;20576;-62
2021/09/09 03:58:56;;;;;;;19.42;11.38;;;;;;;10.12;75.19;100287.63;5111270;28;20042;-62
2021/09/09 04:01:21;;;;;;;19.10;10.55;;;;;;;10.10;75.02;100291.47;5095453;28;21399;-63
2021/09/09 04:03:47;;;;;;;17.17;10.85;;;;;;;10.08;75.19;100285.47;5095383;28;20064;-65
2021/09/09 04:06:13;;;;;;;21.27;11.50;;;;;;;10.11;75.55;100280.66;5032822;28;105893;-66
2021/09/09 04:08:38;;;;;;;17.50;10.95;;;;;;;10.13;75.37;100277.84;5007052;28;105961;-66
2021/09/09 04:11:03;;;;;;;16.80;10.90;;;;;;;10.14;75.71;100279.47;5005698;28;109445;-66
2021/09/09 04:13:29;;;;;;;18.13;11.35;;;;;;;10.13;75.53;100285.81;5005922;28;106359;-65
2021/09/09 04:15:54;;;;;;;14.40;10.40;;;;;;;10.12;75.55;100282.31;5005995;28;106204;-65
2021/09/09 04:18:19;;;;;;;17.00;11.00;;;;;;;10.13;75.78;100273.34;5005652;28;106032;-65
2021/09/09 04:20:45;;;;;;;16.58;9.88;;;;;;;10.14;75.82;100284.81;5005803;28;106105;-65
2021/09/09 04:23:10;;;;;;;14.68;11.15;;;;;;;10.12;75.68;100286.81;5006643;28;106930;-65
2021/09/09 04:25:36;;;;;;;19.80;11.23;;;;;;;10.11;75.48;100277.97;5007956;28;106177;-66
2021/09/09 04:28:01;;;;;;;16.10;10.73;;;;;;;10.12;76.01;100282.31;5007994;28;106030;-65
2021/09/09 04:30:26;;;;;;;17.75;10.98;;;;;;;10.15;75.98;100279.31;5008000;28;105871;-66
2021/09/09 04:32:52;;;;;;;15.10;10.23;;;;;;;10.16;75.82;100278.31;5007728;28;105809;-65
2021/09/09 04:35:17;;;;;;;15.85;10.68;;;;;;;10.20;76.30;100283.31;5008260;28;106486;-66
2021/09/09 04:37:43;;;;;;;21.02;11.95;;;;;;;10.24;76.25;100276.69;5007719;28;106213;-65
2021/09/09 04:40:09;;;;;;;19.58;11.25;;;;;;;10.28;76.14;100278.84;5007111;28;106153;-66
2021/09/09 04:42:34;;;;;;;17.63;11.88;;;;;;;10.32;76.05;100282.84;5007722;28;106253;-66
2021/09/09 04:44:59;;;;;;;14.35;11.73;;;;;;;10.36;76.27;100280.72;5007818;28;106124;-65
2021/09/09 04:47:25;;;;;;;17.00;11.80;;;;;;;10.41;76.23;100286.34;5007527;28;107111;-65
2021/09/09 04:49:50;;;;;;;20.30;11.95;;;;;;;10.48;76.42;100283.84;5007109;28;106017;-67
2021/09/09 04:52:15;;;;;;;23.55;11.70;;;;;;;10.54;76.25;100290.34;5007804;28;106046;-65
2021/09/09 04:54:41;;;;;;;23.58;12.13;;;;;;;10.60;76.52;100279.84;5008632;28;105842;-65
2021/09/09 04:57:06;;;;;;;22.73;10.73;;;;;;;10.70;76.71;100284.16;5010194;28;106471;-65
2021/09/09 04:59:32;;;;;;;23.90;13.57;;;;;;;10.77;76.53;100278.00;5010473;28;106015;-65
2021/09/09 05:01:57;;;;;;;15.23;11.88;;;;;;;10.87;76.38;100287.63;5011068;28;105993;-65
2021/09/09 05:04:23;;;;;;;17.58;10.50;;;;;;;10.95;76.05;100279.63;5010806;28;106326;-65
2021/09/09 05:06:48;;;;;;;18.23;10.10;;;;;;;11.01;76.53;100270.94;5007030;28;107054;-65
2021/09/09 05:09:13;;;;;;;16.63;10.98;;;;;;;11.10;76.27;100274.41;5007084;28;106127;-64
2021/09/09 05:11:39;;;;;;;19.63;11.40;;;;;;;11.21;76.40;100274.06;5009250;28;105952;-64
2021/09/09 05:14:04;;;;;;;15.90;10.15;;;;;;;11.34;75.99;100268.16;5009241;28;106082;-65
2021/09/09 05:16:29;;;;;;;16.33;10.98;;;;;;;11.45;76.00;100273.09;5008860;28;106292;-64
2021/09/09 05:18:55;;;;;;;17.42;10.52;;;;;;;11.56;75.95;100265.72;5008785;28;106609;-65
2021/09/09 05:21:21;;;;;;;20.27;11.30;;;;;;;11.65;76.06;100268.16;5010045;28;106086;-64
2021/09/09 05:23:46;;;;;;;14.48;9.75;;;;;;;11.74;75.68;100265.44;5008892;28;106034;-64
2021/09/09 05:26:11;;;;;;;17.77;11.13;;;;;;;11.82;75.54;100254.72;5009327;28;106672;-64
2021/09/09 05:28:37;;;;;;;20.38;10.52;;;;;;;11.91;75.91;100247.50;5007695;28;106391;-65
2021/09/09 05:31:02;;;;;;;19.30;10.00;;;;;;;11.99;75.64;100256.31;5009285;28;106295;-64
2021/09/09 05:33:28;;;;;;;15.48;10.43;;;;;;;12.06;75.13;100252.94;5008061;28;106105;-64
2021/09/09 05:35:53;;;;;;;14.10;9.63;;;;;;;12.18;75.69;100259.53;5008971;28;106445;-64
2021/09/09 05:38:19;;;;;;;17.38;10.50;;;;;;;12.29;74.96;100260.94;5008856;28;105911;-64
2021/09/09 05:40:44;;;;;;;14.68;10.15;;;;;;;12.39;74.81;100248.16;5009496;28;106010;-64
2021/09/09 05:43:09;;;;;;;12.00;9.30;;;;;;;12.53;75.08;100250.03;5008487;28;106148;-64
2021/09/09 05:45:35;;;;;;;14.70;10.00;;;;;;;12.68;75.04;100238.53;5008920;28;105926;-64
2021/09/09 05:48:00;;;;;;;17.00;11.70;;;;;;;12.82;74.76;100237.72;5008464;28;105925;-64
2021/09/09 05:50:25;;;;;;;15.18;10.23;;;;;;;12.92;74.48;100248.13;5009347;28;106050;-64
2021/09/09 05:52:51;;;;;;;13.10;9.55;;;;;;;13.06;74.67;100249.13;5008941;28;106367;-64
2021/09/09 05:55:16;;;;;;;17.77;9.10;;;;;;;13.16;74.10;100249.69;5008283;28;114113;-63
2021/09/09 05:57:42;;;;;;;20.02;9.73;;;;;;;13.31;73.89;100240.81;5008901;28;106287;-64
2021/09/09 06:00:10;;;;;;;13.95;9.38;;;;;;;13.47;73.57;100237.13;5009457;28;106347;-64
2021/09/09 06:02:42;;;;;;;17.27;9.35;;;;;;;13.61;73.36;100243.47;5009005;28;106003;-63
2021/09/09 06:05:09;;;;;;;14.57;9.10;;;;;;;13.78;73.08;100230.66;5006379;28;107288;-65
2021/09/09 06:07:34;;;;;;;11.75;8.18;;;;;;;13.99;73.10;100235.19;5008220;28;106556;-64
2021/09/09 06:09:59;;;;;;;13.48;8.25;;;;;;;14.12;72.44;100232.66;5009173;28;107492;-64
2021/09/09 06:12:26;;;;;;;15.77;9.20;;;;;;;14.29;72.07;100229.69;5008433;28;106056;-64
2021/09/09 06:14:53;;;;;;;13.20;8.93;;;;;;;14.44;71.55;100233.13;5007219;28;106741;-64
2021/09/09 06:17:18;;;;;;;15.63;9.10;;;;;;;14.60;71.35;100231.16;5007411;28;105992;-64
2021/09/09 06:19:43;;;;;;;14.48;8.65;;;;;;;14.74;70.91;100230.25;5008624;28;106447;-64
2021/09/09 06:22:09;;;;;;;17.30;9.00;;;;;;;14.85;70.21;100229.69;5006953;28;106255;-64
2021/09/09 06:24:34;;;;;;;13.63;8.13;;;;;;;14.97;70.37;100224.63;5007036;28;106037;-65
2021/09/09 06:27:00;;;;;;;13.30;8.07;;;;;;;15.13;69.78;100219.94;5009110;28;105945;-67
2021/09/09 06:29:25;;;;;;;11.50;7.20;;;;;;;15.29;69.78;100213.41;5010724;28;105943;-66
2021/09/09 06:31:51;;;;;;;11.85;7.88;;;;;;;15.46;68.96;100212.03;5010337;28;106090;-64
2021/09/09 06:34:16;;;;;;;11.65;7.53;;;;;;;15.59;68.91;100218.47;5009238;28;105898;-65
2021/09/09 06:36:42;;;;;;;14.52;8.32;;;;;;;15.71;68.30;100228.41;5009999;28;106268;-64
2021/09/09 06:39:07;;;;;;;11.48;8.02;;;;;;;15.88;68.00;100234.25;5010382;28;105985;-65
2021/09/09 06:41:32;;;;;;;13.65;7.60;;;;;;;15.93;66.83;100222.91;5009992;28;106159;-65
2021/09/09 06:43:58;;;;;;;10.93;6.72;;;;;;;16.04;67.06;100216.09;5009610;28;109146;-65
2021/09/09 06:46:23;;;;;;;12.35;7.78;;;;;;;16.18;66.39;100219.59;5009561;28;105858;-65
2021/09/09 06:48:49;;;;;;;10.75;6.97;;;;;;;16.32;66.08;100225.81;5010240;28;105871;-65
2021/09/09 06:51:18;;;;;;;11.80;6.93;;;;;;;16.50;65.84;100217.94;5024814;28;106222;-66
2021/09/09 06:53:44;;;;;;;9.70;6.22;;;;;;;16.70;65.28;100222.47;5009513;27;106725;-65
2021/09/09 06:56:09;;;;;;;14.50;7.38;;;;;;;16.95;64.96;100229.88;5009587;28;106023;-65
2021/09/09 06:58:34;;;;;;;12.20;6.25;;;;;;;17.12;64.10;100225.69;5010110;28;105869;-65
2021/09/09 07:01:00;;;;;;;11.13;6.40;;;;;;;17.16;63.02;100224.22;5009463;28;106172;-65
2021/09/09 07:03:29;;;;;;;11.75;6.97;;;;;;;17.25;62.68;100228.34;5009149;28;115012;-64
2021/09/09 07:05:55;;;;;;;10.33;6.83;;;;;;;17.46;62.62;100221.00;5009076;27;105967;-65
2021/09/09 07:08:20;;;;;;;11.95;5.80;;;;;;;17.56;61.89;100210.59;5010117;28;106238;-64
2021/09/09 07:10:45;;;;;;;11.65;5.82;;;;;;;17.77;61.95;100211.28;5024606;27;106420;-65
2021/09/09 07:13:11;;;;;;;10.88;6.03;;;;;;;17.91;60.60;100217.41;5008611;28;106235;-65
2021/09/09 07:15:38;;;;;;;10.63;5.90;;;;;;;18.00;60.50;100220.69;5009050;27;106419;-65
2021/09/09 07:18:03;;;;;;;17.70;6.70;;;;;;;18.16;60.31;100213.94;5009357;27;106250;-65
2021/09/09 07:20:29;;;;;;;10.30;5.60;;;;;;;18.32;59.71;100213.38;5007964;28;106245;-65
2021/09/09 07:22:54;;;;;;;9.30;5.53;;;;;;;18.51;58.90;100219.66;5008399;28;106653;-65
2021/09/09 07:25:19;;;;;;;11.90;5.32;;;;;;;18.61;58.51;100219.13;5008826;28;106052;-65
2021/09/09 07:27:45;;;;;;;8.40;4.90;;;;;;;18.74;57.59;100221.72;5009002;28;105927;-65
2021/09/09 07:30:10;;;;;;;12.45;4.82;;;;;;;18.86;57.51;100219.09;5008602;28;106109;-65
2021/09/09 07:32:36;;;;;;;7.55;5.10;;;;;;;19.09;57.37;100213.03;5007706;28;106105;-65
2021/09/09 07:35:03;;;;;;;8.85;5.15;;;;;;;19.24;55.89;100222.63;5008391;28;106108;-65
2021/09/09 07:37:28;;;;;;;10.30;5.60;;;;;;;19.28;55.76;100211.13;5009179;28;106030;-65
2021/09/09 07:39:53;;;;;;;11.70;6.18;;;;;;;19.64;56.19;100213.16;5006164;28;106423;-64
2021/09/09 07:42:19;;;;;;;9.23;5.78;;;;;;;19.84;55.07;100208.31;5007809;28;106255;-64
2021/09/09 07:44:44;;;;;;;11.65;5.40;;;;;;;20.09;54.59;100208.16;5006399;28;106103;-64
2021/09/09 07:47:09;;;;;;;9.32;4.85;;;;;;;20.46;54.43;100204.41;5008948;28;106283;-64
2021/09/09 07:49:35;;;;;;;8.63;5.07;;;;;;;20.88;53.14;100208.88;5008487;28;106135;-64
2021/09/09 07:52:00;;;;;;;7.80;5.50;;;;;;;21.05;52.35;100214.38;5007630;28;106723;-64
2021/09/09 07:54:25;;;;;;;9.43;5.53;;;;;;;21.31;51.49;100213.03;5007931;28;106407;-65
2021/09/09 07:56:51;;;;;;;11.50;5.35;;;;;;;21.45;50.48;100221.69;5009111;28;105911;-65
2021/09/09 07:59:16;;;;;;;9.68;5.20;;;;;;;21.69;50.41;100211.56;5023731;28;106195;-66
2021/09/09 08:01:45;;;;;;;9.48;5.07;;;;;;;22.04;49.99;100210.53;5008338;28;105903;-65
2021/09/09 08:04:15;;;;;;;13.52;4.88;;;;;;;22.41;49.12;100214.69;5007781;28;106124;-65
2021/09/09 08:06:44;;;;;;;9.65;5.35;;;;;;;22.63;48.08;100217.44;5009048;28;105870;-64
2021/09/09 08:09:10;;;;;;;8.30;4.43;;;;;;;22.69;45.97;100223.75;5008260;28;106152;-65
2021/09/09 08:11:36;;;;;;;8.55;5.82;;;;;;;22.70;46.29;100219.97;5008279;28;105838;-65
2021/09/09 08:14:02;;;;;;;8.60;4.85;;;;;;;22.82;45.07;100223.41;5007897;28;106453;-65
2021/09/09 08:16:27;;;;;;;12.18;5.30;;;;;;;22.89;44.76;100234.09;5008990;28;105785;-64
2021/09/09 08:18:52;;;;;;;9.07;4.93;;;;;;;23.14;44.64;100217.31;5008587;28;105985;-65
2021/09/09 08:21:18;;;;;;;8.38;4.10;;;;;;;23.49;44.37;100224.25;5008447;28;106005;-65
2021/09/09 08:23:43;;;;;;;8.32;4.40;;;;;;;23.88;43.38;100240.44;5008197;28;106092;-65
2021/09/09 08:26:09;;;;;;;10.05;4.72;;;;;;;23.94;42.15;100227.72;5008709;28;106018;-65
2021/09/09 08:28:35;;;;;;;8.65;4.22;;;;;;;24.28;41.85;100217.38;5007941;28;106423;-66
2021/09/09 08:31:01;;;;;;;14.57;5.22;;;;;;;24.61;41.47;100214.59;5007680;28;105912;-64
2021/09/09 08:33:26;;;;;;;7.63;4.32;;;;;;;24.89;40.20;100218.88;5007539;28;105914;-65
2021/09/09 08:35:52;;;;;;;5.88;4.28;;;;;;;25.21;39.88;100223.34;5008514;28;105847;-65
2021/09/09 08:38:17;;;;;;;18.55;5.63;;;;;;;25.71;38.82;100220.22;5008270;28;105922;-64
2021/09/09 08:40:43;;;;;;;11.77;4.78;;;;;;;26.93;37.18;100214.97;5007895;28;108859;-65
2021/09/09 08:43:09;;;;;;;9.05;4.95;;;;;;;29.59;33.73;100210.13;5007640;28;105843;-65
2021/09/09 08:45:35;;;;;;;15.55;4.22;;;;;;;32.04;28.90;100215.81;5008982;28;105832;-65
2021/09/09 08:48:03;;;;;;;7.68;4.57;;;;;;;34.39;25.59;100205.53;5007840;28;106211;-66
2021/09/09 08:50:31;;;;;;;9.30;4.30;;;;;;;36.62;22.74;100205.91;5007341;28;105942;-65
2021/09/09 08:52:58;;;;;;;8.25;4.43;;;;;;;38.75;20.00;100218.31;5006499;28;105958;-66
2021/09/09 08:55:24;;;;;;;7.32;4.38;;;;;;;39.84;18.74;100210.31;5008144;28;105868;-66
2021/09/09 08:57:49;;;;;;;6.63;3.47;;;;;;;40.48;17.86;100212.63;5007652;28;106456;-66
2021/09/09 09:00:15;;;;;;;8.75;3.97;;;;;;;41.12;17.02;100210.06;5007112;28;105922;-65
2021/09/09 09:02:51;;;;;;;9.50;4.20;;;;;;;40.82;16.26;100213.63;5007512;28;106516;-65
2021/09/09 09:05:17;;;;;;;9.07;3.78;;;;;;;41.28;16.01;100213.47;5008660;28;105897;-65
2021/09/09 09:07:42;;;;;;;8.10;4.22;;;;;;;41.67;15.68;100200.38;5007637;28;105925;-66
2021/09/09 09:10:09;;;;;;;9.02;3.42;;;;;;;41.53;15.16;100210.22;5006537;28;107176;-65
2021/09/09 09:12:42;;;;;;;8.25;3.63;;;;;;;42.68;15.13;100193.75;5007298;28;107270;-66
2021/09/09 09:15:19;;;;;;;8.63;4.35;;;;;;;43.28;13.90;100198.09;5008312;28;106090;-65
2021/09/09 09:17:54;;;;;;;12.60;4.28;;;;;;;43.50;13.89;100194.56;5007382;28;106226;-65
2021/09/09 09:20:19;;;;;;;14.77;4.50;;;;;;;43.29;13.63;100184.88;5007595;28;105911;-66
2021/09/09 09:22:45;;;;;;;9.38;4.72;;;;;;;43.52;13.49;100195.78;5007281;28;105908;-65
2021/09/09 09:25:11;;;;;;;9.45;4.60;;;;;;;44.45;13.08;100197.13;5007715;28;106251;-66
2021/09/09 09:27:45;;;;;;;11.27;4.32;;;;;;;44.84;12.40;100190.66;5007790;28;106187;-66
2021/09/09 09:30:12;;;;;;;9.95;4.15;;;;;;;45.21;12.28;100189.34;5006868;28;107622;-66
2021/09/09 09:32:49;;;;;;;9.20;4.22;;;;;;;45.52;11.87;100189.63;5006477;28;106348;-65
2021/09/09 09:35:17;;;;;;;8.13;3.78;;;;;;;45.59;11.68;100183.97;5008014;28;105848;-65
2021/09/09 09:38:07;;;;;;;16.83;4.03;;;;;;;45.49;11.16;100212.16;5007132;28;106152;-66
2021/09/09 09:40:42;;;;;;;6.43;3.22;;;;;;;45.04;11.28;100201.44;5007781;28;105880;-65
2021/09/09 09:43:10;;;;;;;8.18;3.42;;;;;;;44.73;10.74;100196.31;5009888;28;106256;-65
2021/09/09 09:45:36;;;;;;;5.88;3.10;;;;;;;44.57;11.08;100182.66;5011176;28;105951;-65
2021/09/09 09:48:02;;;;;;;9.02;3.00;;;;;;;44.97;10.79;100185.41;5010799;28;105848;-65
2021/09/09 09:50:39;;;;;;;7.72;3.58;;;;;;;45.61;10.37;100189.19;5010216;28;105813;-66
2021/09/09 09:53:18;;;;;;;9.60;3.63;;;;;;;46.25;10.43;100192.78;5010269;28;106452;-65
2021/09/09 09:55:45;;;;;;;7.18;3.70;;;;;;;46.64;10.37;100174.69;5010614;28;106143;-65
2021/09/09 09:58:10;;;;;;;10.57;3.70;;;;;;;46.27;10.40;100176.25;5010409;28;105888;-65
2021/09/09 10:00:36;;;;;;;5.82;3.10;;;;;;;45.52;10.38;100166.31;5010410;28;105885;-66
2021/09/09 10:03:02;;;;;;;10.63;4.10;;;;;;;46.04;10.27;100169.19;5010155;28;106072;-65
2021/09/09 10:05:29;;;;;;;6.30;3.33;;;;;;;45.90;10.11;100167.28;5011305;28;105919;-66
2021/09/09 10:07:54;;;;;;;6.97;3.60;;;;;;;45.57;10.61;100168.72;5009999;28;106197;-66
2021/09/09 10:10:23;;;;;;;9.35;3.10;;;;;;;45.50;10.18;100169.56;5010339;28;106018;-65
2021/09/09 10:12:49;;;;;;;7.95;3.33;;;;;;;45.24;10.51;100160.41;5009785;28;105949;-66
2021/09/09 10:15:15;;;;;;;9.20;3.42;;;;;;;45.70;10.09;100158.56;5011138;28;105848;-65
2021/09/09 10:17:41;;;;;;;6.18;3.30;;;;;;;45.16;10.36;100177.75;5010377;28;106235;-65
2021/09/09 10:20:33;;;;;;;8.65;2.88;;;;;;;45.22;10.45;100170.47;5009963;28;106303;-65
2021/09/09 10:23:04;;;;;;;6.78;3.50;;;;;;;45.21;10.33;100177.31;5009802;28;106030;-65
2021/09/09 10:25:57;;;;;;;5.90;3.08;;;;;;;45.50;9.99;100154.69;5010818;28;106221;-65
2021/09/09 10:28:45;;;;;;;6.05;3.00;;;;;;;45.73;9.81;100154.13;5009790;28;106221;-64
2021/09/09 10:31:11;;;;;;;4.95;3.00;;;;;;;45.42;10.15;100157.50;5009352;28;107128;-66
2021/09/09 10:33:44;;;;;;;5.80;3.05;;;;;;;45.31;9.99;100134.28;5008718;28;106523;-65
2021/09/09 10:36:49;;;;;;;5.18;2.83;;;;;;;46.00;9.83;100128.22;5010833;28;105914;-65
2021/09/09 10:39:45;;;;;;;6.43;3.17;;;;;;;45.81;9.77;100147.25;5009468;28;106208;-65
2021/09/09 10:42:36;;;;;;;7.70;2.78;;;;;;;46.48;9.60;100129.38;4992156;28;107468;-65
2021/09/09 10:45:03;;;;;;;5.15;3.15;;;;;;;46.64;9.68;100126.03;5009351;28;106087;-66
2021/09/09 10:47:29;;;;;;;7.45;2.75;;;;;;;46.54;9.16;100127.72;5010349;28;106517;-65
2021/09/09 10:50:05;;;;;;;4.20;2.90;;;;;;;46.42;9.29;100132.66;5009833;28;106237;-65
2021/09/09 10:52:33;;;;;;;6.10;2.75;;;;;;;46.64;9.52;100120.38;5009448;28;106101;-65
2021/09/09 10:55:07;;;;;;;5.67;2.53;;;;;;;47.81;8.63;100115.56;5009158;28;106090;-65
2021/09/09 10:57:33;;;;;;;6.07;2.92;;;;;;;47.22;8.66;100107.16;5010518;28;106342;-65
2021/09/09 11:00:03;;;;;;;8.40;2.58;;;;;;;47.18;8.47;100120.53;5009288;28;106230;-65
2021/09/09 11:02:29;;;;;;;6.15;2.67;;;;;;;47.22;8.86;100104.34;5008433;28;107416;-66
2021/09/09 11:05:02;;;;;;;7.97;3.35;;;;;;;47.99;8.42;100110.44;5009151;28;105987;-66
2021/09/09 11:07:28;;;;;;;4.43;2.30;;;;;;;47.65;8.10;100104.94;5009961;28;106021;-66
2021/09/09 11:10:02;;;;;;;4.93;2.13;;;;;;;47.91;8.01;100087.16;5009327;28;106175;-66